Time;durP1;ratioP1;P1;durP2;ratioP2;P2;SDS_P1;SDS_P2;PMS_P1;PMS_P2;Temp;Humidity;BMP_temperature;BMP_pressure;BME280_temperature;BME280_humidity;BME280_pressure;Samples;Min_cycle;Max_cycle;Signal;HPM_P1;HPM_P2
2022/06/18 00:04:35;;;;;;;2.65;1.90;;;27.00;47.40;;;;;;10095625;28;20569;-60
2022/06/18 00:09:33;;;;;;;4.00;2.15;;;26.80;47.60;;;;;;10092705;28;20481;-60
2022/06/18 00:14:24;;;;;;;1.75;1.60;;;26.80;48.00;;;;;;10094032;28;20361;-60
2022/06/18 00:19:15;;;;;;;2.92;1.85;;;26.70;47.90;;;;;;10092634;28;20028;-60
2022/06/18 00:24:16;;;;;;;3.25;1.80;;;26.50;48.10;;;;;;10092158;28;20454;-60
2022/06/18 00:29:13;;;;;;;4.80;1.67;;;26.60;48.30;;;;;;10091771;28;20052;-61
2022/06/18 00:34:04;;;;;;;3.45;1.98;;;26.60;48.20;;;;;;10092933;28;20362;-61
2022/06/18 00:38:55;;;;;;;2.15;1.52;;;26.70;48.10;;;;;;10091836;28;20090;-61
2022/06/18 00:44:03;;;;;;;5.28;3.33;;;26.50;48.30;;;;;;10074933;28;20024;-61
2022/06/18 00:49:22;;;;;;;4.15;1.98;;;26.50;48.50;;;;;;10092021;28;20031;-60
2022/06/18 00:54:30;;;;;;;2.53;2.33;;;26.60;48.40;;;;;;10082806;28;20491;-59
2022/06/18 00:59:31;;;;;;;4.40;1.90;;;26.30;48.40;;;;;;10089688;28;20108;-60
2022/06/18 01:04:24;;;;;;;5.80;3.03;;;26.50;48.50;;;;;;10094756;28;20020;-61
2022/06/18 01:09:17;;;;;;;7.57;4.38;;;26.30;49.00;;;;;;10091852;28;20031;-59
2022/06/18 01:14:11;;;;;;;4.80;3.13;;;26.10;49.40;;;;;;10092235;28;20025;-60
2022/06/18 01:19:06;;;;;;;3.73;2.40;;;25.90;50.20;;;;;;10094248;28;20466;-61
2022/06/18 01:24:21;;;;;;;5.47;2.90;;;25.50;50.90;;;;;;10099123;28;20064;-61
2022/06/18 01:29:11;;;;;;;5.25;2.22;;;25.30;52.60;;;;;;10082817;28;20049;-59
2022/06/18 01:34:04;;;;;;;3.38;2.60;;;25.40;52.00;;;;;;10080793;28;20029;-60
2022/06/18 01:38:55;;;;;;;5.10;2.70;;;25.50;52.70;;;;;;10099274;28;20087;-60
2022/06/18 01:43:48;;;;;;;3.55;2.45;;;25.40;53.10;;;;;;10099106;28;20025;-60
2022/06/18 01:48:42;;;;;;;3.63;2.67;;;25.10;53.70;;;;;;10098103;28;20032;-60
2022/06/18 01:53:47;;;;;;;4.03;2.10;;;25.00;54.10;;;;;;10097571;28;20061;-62
2022/06/18 01:58:46;;;;;;;6.00;2.35;;;25.00;54.60;;;;;;10098189;28;20364;-60
2022/06/18 02:03:37;;;;;;;3.20;2.20;;;24.90;54.70;;;;;;10100421;28;20044;-61
2022/06/18 02:08:27;;;;;;;3.78;2.65;;;24.90;54.90;;;;;;10096435;28;20032;-61
2022/06/18 02:13:21;;;;;;;3.67;2.38;;;24.90;55.30;;;;;;10097187;28;20399;-61
2022/06/18 02:18:15;;;;;;;3.20;2.50;;;24.80;55.70;;;;;;10095460;28;20013;-61
2022/06/18 02:23:06;;;;;;;4.18;2.78;;;24.70;55.90;;;;;;10093225;28;20483;-60
2022/06/18 02:28:03;;;;;;;2.58;1.98;;;24.70;56.10;;;;;;10076763;28;20033;-61
2022/06/18 02:33:01;;;;;;;4.63;2.75;;;24.80;56.20;;;;;;10095520;28;20114;-59
2022/06/18 02:37:54;;;;;;;2.33;2.13;;;24.70;56.50;;;;;;10096993;28;20273;-61
2022/06/18 02:42:45;;;;;;;5.00;2.38;;;24.50;56.60;;;;;;10094121;28;20116;-60
2022/06/18 02:47:36;;;;;;;3.13;2.17;;;24.50;56.70;;;;;;10096165;28;20037;-60
2022/06/18 02:52:33;;;;;;;2.70;2.38;;;24.30;56.80;;;;;;10095849;28;20507;-61
2022/06/18 02:57:27;;;;;;;5.47;2.95;;;24.40;57.20;;;;;;10096418;28;20059;-59
2022/06/18 03:02:18;;;;;;;7.70;3.00;;;24.50;56.90;;;;;;10098193;28;20064;-60
2022/06/18 03:07:09;;;;;;;4.00;3.08;;;24.30;57.10;;;;;;10094378;28;20550;-60
2022/06/18 03:12:09;;;;;;;3.08;2.40;;;24.30;57.10;;;;;;10094014;28;20033;-59
2022/06/18 03:16:59;;;;;;;4.38;2.60;;;24.30;57.10;;;;;;10094812;28;20052;-60
2022/06/18 03:21:55;;;;;;;4.35;2.38;;;24.20;57.40;;;;;;10094352;28;20034;-60
2022/06/18 03:26:45;;;;;;;3.67;2.55;;;24.00;57.60;;;;;;10076846;28;20029;-60
2022/06/18 03:31:36;;;;;;;3.78;2.17;;;24.10;57.50;;;;;;10093858;28;20063;-60
2022/06/18 03:36:27;;;;;;;3.75;2.60;;;23.90;57.90;;;;;;10094205;28;20021;-60
2022/06/18 03:41:19;;;;;;;4.70;2.47;;;23.90;58.00;;;;;;10093465;28;20048;-60
2022/06/18 03:46:13;;;;;;;3.33;2.25;;;23.80;58.10;;;;;;10094697;28;20406;-60
2022/06/18 03:51:04;;;;;;;4.65;2.58;;;23.90;58.40;;;;;;10091708;28;20411;-60
2022/06/18 03:55:54;;;;;;;5.32;2.28;;;23.90;58.30;;;;;;10093580;28;20009;-61
2022/06/18 04:00:45;;;;;;;2.28;1.95;;;23.90;58.50;;;;;;10095228;28;20031;-60
2022/06/18 04:05:39;;;;;;;2.78;2.17;;;24.00;59.00;;;;;;10093274;28;20523;-60
2022/06/18 04:10:30;;;;;;;2.58;2.13;;;23.90;58.50;;;;;;10091850;28;20128;-60
2022/06/18 04:15:21;;;;;;;3.92;2.42;;;23.80;58.60;;;;;;10093338;28;20136;-60
2022/06/18 04:20:33;;;;;;;3.90;2.33;;;23.80;58.90;;;;;;10091032;28;20025;-61
2022/06/18 04:25:24;;;;;;;3.63;2.22;;;23.90;59.10;;;;;;10092564;28;20112;-59
2022/06/18 04:30:17;;;;;;;2.88;2.47;;;23.90;58.80;;;;;;10074589;28;20051;-60
2022/06/18 04:35:10;;;;;;;4.78;2.53;;;24.00;58.80;;;;;;10093559;28;20356;-60
2022/06/18 04:40:02;;;;;;;3.38;2.38;;;23.90;59.10;;;;;;10092694;28;20021;-60
2022/06/18 04:44:53;;;;;;;4.13;2.47;;;23.90;59.60;;;;;;10092890;28;20021;-60
2022/06/18 04:49:44;;;;;;;3.75;2.72;;;23.90;59.70;;;;;;10091027;28;20495;-59
2022/06/18 04:54:35;;;;;;;2.22;2.00;;;23.80;60.10;;;;;;10091618;28;20025;-60
2022/06/18 04:59:25;;;;;;;3.38;2.33;;;23.80;60.00;;;;;;10092107;28;20395;-59
2022/06/18 05:04:16;;;;;;;2.30;1.90;;;23.80;59.70;;;;;;10090050;28;20171;-59
2022/06/18 05:09:07;;;;;;;2.45;2.20;;;23.90;59.60;;;;;;10089774;28;20495;-61
2022/06/18 05:13:57;;;;;;;2.20;1.98;;;24.00;59.30;;;;;;10091784;28;20017;-60
2022/06/18 05:18:48;;;;;;;3.67;2.67;;;24.10;58.80;;;;;;10090859;28;20073;-59
2022/06/18 05:23:39;;;;;;;2.83;1.92;;;24.10;58.50;;;;;;10091179;28;20049;-59
2022/06/18 05:28:29;;;;;;;5.50;2.50;;;24.00;58.50;;;;;;10091583;28;20445;-62
2022/06/18 05:33:20;;;;;;;3.28;2.35;;;24.10;58.30;;;;;;10091655;28;20040;-59
2022/06/18 05:38:18;;;;;;;4.13;2.13;;;24.00;58.30;;;;;;10090966;28;20369;-60
2022/06/18 05:43:08;;;;;;;6.45;2.47;;;24.10;57.90;;;;;;10091357;28;20040;-65
2022/06/18 05:47:59;;;;;;;2.95;2.60;;;24.10;57.80;;;;;;10091414;28;20028;-60
2022/06/18 05:52:50;;;;;;;6.32;2.60;;;24.20;57.50;;;;;;10090721;28;20053;-60
2022/06/18 05:57:55;;;;;;;4.25;2.55;;;24.40;57.20;;;;;;10091466;28;20033;-60
2022/06/18 06:02:46;;;;;;;2.25;2.05;;;24.40;57.30;;;;;;10074912;28;20462;-61
2022/06/18 06:07:37;;;;;;;5.05;2.25;;;24.50;57.20;;;;;;10095460;28;20103;-60
2022/06/18 06:12:27;;;;;;;3.38;2.45;;;24.60;56.80;;;;;;10097581;28;20032;-59
2022/06/18 06:17:23;;;;;;;2.55;2.35;;;24.50;56.80;;;;;;10098039;28;20104;-59
2022/06/18 06:22:14;;;;;;;2.78;2.22;;;24.70;56.60;;;;;;10097361;28;20160;-60
2022/06/18 06:27:05;;;;;;;3.08;2.33;;;24.80;56.60;;;;;;10097553;28;20029;-59
2022/06/18 06:31:55;;;;;;;2.85;2.55;;;24.90;56.70;;;;;;10096647;28;20106;-60
2022/06/18 06:36:46;;;;;;;3.65;2.08;;;25.00;56.40;;;;;;10097605;28;20021;-60
2022/06/18 06:41:37;;;;;;;3.75;2.80;;;25.10;56.50;;;;;;10096337;28;20036;-59
2022/06/18 06:46:27;;;;;;;3.25;2.75;;;25.20;56.70;;;;;;10096221;28;20108;-59
2022/06/18 06:51:23;;;;;;;2.78;2.58;;;25.20;56.50;;;;;;10095536;28;20068;-60
2022/06/18 07:01:28;;;;;;;3.80;2.92;;;25.50;56.50;;;;;;10098055;28;20110;-60
2022/06/18 07:06:19;;;;;;;3.30;2.83;;;25.60;56.30;;;;;;10100797;28;20555;-60
2022/06/18 07:11:12;;;;;;;2.55;2.22;;;25.60;56.30;;;;;;10100054;28;20271;-59
2022/06/18 07:16:04;;;;;;;4.57;2.55;;;25.80;56.10;;;;;;10118516;28;20442;-60
2022/06/18 07:20:55;;;;;;;3.00;2.67;;;25.90;56.00;;;;;;10094626;28;20082;-59
2022/06/18 07:25:46;;;;;;;6.88;2.58;;;26.10;55.90;;;;;;10096256;28;20099;-59
2022/06/18 07:30:37;;;;;;;3.15;2.50;;;26.30;55.60;;;;;;10096429;28;20033;-58
2022/06/18 07:35:30;;;;;;;4.22;2.63;;;26.20;55.70;;;;;;10095375;28;20021;-61
2022/06/18 07:40:21;;;;;;;4.10;3.03;;;26.30;55.60;;;;;;10094256;28;20021;-59
2022/06/18 07:45:18;;;;;;;5.03;3.38;;;26.50;55.30;;;;;;10094990;28;20021;-58
2022/06/18 07:50:08;;;;;;;3.88;2.70;;;26.70;55.10;;;;;;10094554;28;20109;-60
2022/06/18 07:55:00;;;;;;;8.23;2.72;;;26.70;55.00;;;;;;10093595;28;20104;-60
2022/06/18 07:59:50;;;;;;;3.00;2.28;;;26.90;54.80;;;;;;10101609;28;20036;-60
2022/06/18 08:04:41;;;;;;;3.95;3.38;;;27.00;54.40;;;;;;10094202;28;20028;-59
2022/06/18 08:09:33;;;;;;;2.80;2.38;;;27.10;54.40;;;;;;10093078;28;20548;-58
2022/06/18 08:14:23;;;;;;;5.85;2.75;;;27.20;54.20;;;;;;10102825;28;20648;-62
2022/06/18 08:19:14;;;;;;;5.07;3.08;;;27.40;54.10;;;;;;10100345;28;20032;-60
2022/06/18 08:24:09;;;;;;;3.90;2.60;;;27.50;53.90;;;;;;10092980;28;20057;-58
2022/06/18 08:29:03;;;;;;;3.17;2.63;;;27.70;53.70;;;;;;10090147;28;20017;-59
2022/06/18 08:33:54;;;;;;;6.00;2.87;;;27.80;53.50;;;;;;10100278;28;20028;-59
2022/06/18 08:38:47;;;;;;;5.50;2.67;;;27.80;53.40;;;;;;10105820;28;20067;-59
2022/06/18 08:43:52;;;;;;;3.92;2.30;;;27.90;53.30;;;;;;10116826;28;20017;-61
2022/06/18 08:49:04;;;;;;;3.03;2.60;;;28.20;52.80;;;;;;10104770;28;20507;-59
2022/06/18 08:54:19;;;;;;;2.70;2.42;;;28.40;52.60;;;;;;10108257;28;20399;-59
2022/06/18 08:59:23;;;;;;;2.40;2.20;;;28.50;52.50;;;;;;10116027;28;20029;-62
2022/06/18 09:04:52;;;;;;;2.50;2.17;;;28.60;52.10;;;;;;10110983;28;20562;-60
2022/06/18 09:09:55;;;;;;;5.35;2.72;;;28.70;51.70;;;;;;10076894;28;20110;-59
2022/06/18 09:15:02;;;;;;;2.90;2.60;;;28.80;51.70;;;;;;10096370;28;20120;-58
2022/06/18 09:20:05;;;;;;;4.68;2.45;;;29.10;51.30;;;;;;10091436;28;20368;-59
2022/06/18 09:25:07;;;;;;;2.60;2.28;;;29.20;51.00;;;;;;10108155;28;20519;-61
2022/06/18 09:30:09;;;;;;;3.90;2.40;;;29.40;50.50;;;;;;10099978;28;20112;-59
2022/06/18 09:35:28;;;;;;;2.67;2.20;;;29.60;50.00;;;;;;10077401;28;20086;-59
2022/06/18 09:40:36;;;;;;;2.47;2.17;;;29.80;49.30;;;;;;10094428;28;20021;-60
2022/06/18 09:45:32;;;;;;;2.38;2.17;;;29.90;49.30;;;;;;10099404;28;20016;-61
2022/06/18 09:50:32;;;;;;;5.03;2.30;;;30.10;49.00;;;;;;10099374;28;20029;-59
2022/06/18 09:55:35;;;;;;;4.13;2.25;;;30.30;48.70;;;;;;10098595;28;20017;-60
2022/06/18 10:00:30;;;;;;;2.20;2.00;;;30.30;48.30;;;;;;10099072;28;20083;-61
2022/06/18 10:10:36;;;;;;;2.60;1.83;;;30.50;47.80;;;;;;10097896;28;20066;-59
2022/06/18 10:15:28;;;;;;;3.67;2.38;;;30.80;47.50;;;;;;10098254;28;20043;-58
2022/06/18 10:20:31;;;;;;;3.22;2.33;;;30.80;47.10;;;;;;10098232;28;20108;-59
2022/06/18 10:25:32;;;;;;;3.75;1.98;;;30.90;47.00;;;;;;10097670;28;20511;-62
2022/06/18 10:30:52;;;;;;;2.58;1.88;;;31.00;46.60;;;;;;10096697;28;20029;-61
2022/06/18 10:35:54;;;;;;;3.15;2.10;;;31.00;46.00;;;;;;10096987;28;20056;-60
2022/06/18 10:41:10;;;;;;;2.78;1.75;;;31.20;46.10;;;;;;10096534;28;20199;-58
2022/06/18 10:46:17;;;;;;;3.30;2.20;;;31.30;45.40;;;;;;10096508;28;20037;-63
2022/06/18 10:51:17;;;;;;;2.35;2.08;;;31.40;45.30;;;;;;10095897;28;20469;-70
2022/06/18 10:56:20;;;;;;;2.72;2.05;;;31.50;45.10;;;;;;10094859;28;20056;-66
2022/06/18 11:01:13;;;;;;;4.20;2.17;;;31.40;44.70;;;;;;10093740;28;20531;-66
2022/06/18 11:06:12;;;;;;;2.40;1.92;;;31.70;44.60;;;;;;10094692;28;20044;-63
2022/06/18 11:11:14;;;;;;;30.63;23.70;;;31.50;45.20;;;;;;10090114;28;20048;-60
2022/06/18 11:16:05;;;;;;;8.27;5.03;;;30.60;46.40;;;;;;10096209;28;20017;-60
2022/06/18 11:21:06;;;;;;;3.25;2.95;;;30.40;47.40;;;;;;10100087;28;20115;-60
2022/06/18 11:25:57;;;;;;;3.50;2.60;;;30.40;47.60;;;;;;10092896;28;20264;-59
2022/06/18 11:30:50;;;;;;;3.50;2.55;;;30.10;49.10;;;;;;10091703;28;20110;-60
2022/06/18 11:35:42;;;;;;;3.80;2.17;;;30.30;48.30;;;;;;10092286;28;20028;-58
2022/06/18 11:40:32;;;;;;;4.65;2.53;;;30.40;48.10;;;;;;10091100;28;20045;-59
2022/06/18 11:45:36;;;;;;;3.53;2.90;;;30.30;48.40;;;;;;10074444;28;20094;-60
2022/06/18 11:50:31;;;;;;;3.05;2.50;;;30.50;48.00;;;;;;10093574;28;20060;-59
2022/06/18 11:55:27;;;;;;;3.95;2.30;;;30.40;48.50;;;;;;10097096;28;20035;-58
2022/06/18 12:00:47;;;;;;;3.13;2.00;;;30.70;48.30;;;;;;10093953;28;20494;-59
2022/06/18 12:05:46;;;;;;;4.82;2.63;;;31.00;48.30;;;;;;10095436;28;20032;-59
2022/06/18 12:10:53;;;;;;;3.55;3.25;;;31.20;48.00;;;;;;10092024;28;20102;-60
2022/06/18 12:15:59;;;;;;;4.90;2.70;;;31.30;48.40;;;;;;10093609;28;20017;-59
2022/06/18 12:21:06;;;;;;;3.67;3.00;;;31.80;47.90;;;;;;10084685;28;20048;-60
2022/06/18 12:26:16;;;;;;;3.08;2.50;;;32.20;48.00;;;;;;10095287;28;20068;-60
2022/06/18 12:31:25;;;;;;;3.33;2.10;;;32.70;47.70;;;;;;10092843;28;20041;-60
2022/06/18 12:36:35;;;;;;;3.05;2.22;;;33.30;47.60;;;;;;10094533;28;20025;-62
2022/06/18 12:41:38;;;;;;;7.03;2.30;;;33.60;47.80;;;;;;10092491;28;20055;-60
2022/06/18 12:46:46;;;;;;;4.82;2.42;;;34.10;47.80;;;;;;10091761;28;20102;-60
2022/06/18 12:51:47;;;;;;;4.30;3.00;;;34.70;46.90;;;;;;10098621;28;20037;-61
2022/06/18 12:57:01;;;;;;;3.53;2.60;;;35.40;46.00;;;;;;10073489;28;20060;-59
2022/06/18 13:01:52;;;;;;;4.57;2.85;;;36.10;44.90;;;;;;10091858;28;20055;-61
2022/06/18 13:06:55;;;;;;;3.00;2.40;;;36.90;44.90;;;;;;10091118;28;20487;-60
2022/06/18 13:12:23;;;;;;;4.00;2.50;;;37.90;43.50;;;;;;10088552;28;20037;-57
2022/06/18 13:17:23;;;;;;;4.60;2.30;;;39.80;41.10;;;;;;10101400;28;20475;-59
2022/06/18 13:22:14;;;;;;;4.88;2.20;;;40.70;40.00;;;;;;10095757;28;20045;-61
2022/06/18 13:32:41;;;;;;;4.57;2.85;;;41.80;38.40;;;;;;10098084;28;20044;-60
2022/06/18 13:37:45;;;;;;;3.45;2.15;;;42.20;37.50;;;;;;10097217;28;20056;-61
2022/06/18 13:43:13;;;;;;;5.60;3.13;;;42.50;36.60;;;;;;10097617;28;20252;-59
2022/06/18 13:48:28;;;;;;;4.15;2.90;;;42.70;35.70;;;;;;10001745;28;20286;-59
2022/06/18 13:53:26;;;;;;;4.70;2.92;;;42.70;35.90;;;;;;10091783;28;20121;-59
2022/06/18 13:58:21;;;;;;;5.07;2.90;;;43.00;35.50;;;;;;10099831;28;20024;-60
2022/06/18 14:03:24;;;;;;;4.20;2.72;;;43.20;35.00;;;;;;10091212;28;20047;-60
2022/06/18 14:08:30;;;;;;;4.60;2.85;;;43.20;34.40;;;;;;10095812;28;20253;-60
2022/06/18 14:13:25;;;;;;;4.95;3.88;;;42.90;34.50;;;;;;10098864;28;20037;-59
2022/06/18 14:18:19;;;;;;;2.83;2.63;;;42.90;34.60;;;;;;10096749;28;20006;-59
2022/06/18 14:23:24;;;;;;;4.25;2.67;;;42.90;34.40;;;;;;10096528;28;20052;-60
2022/06/18 14:28:24;;;;;;;2.78;2.55;;;43.10;34.20;;;;;;10095623;28;20091;-59
2022/06/18 14:33:29;;;;;;;4.80;3.05;;;42.80;34.10;;;;;;10096308;28;20033;-61
2022/06/18 14:38:20;;;;;;;4.47;3.33;;;43.30;33.70;;;;;;10078082;28;20479;-59
2022/06/18 14:43:27;;;;;;;3.75;2.70;;;44.20;33.30;;;;;;10097134;28;20021;-60
2022/06/18 14:48:30;;;;;;;4.13;2.40;;;44.30;33.00;;;;;;10096019;28;20345;-60
2022/06/18 14:53:27;;;;;;;5.90;3.35;;;44.70;32.80;;;;;;10096466;28;20029;-59
2022/06/18 14:58:31;;;;;;;3.92;2.80;;;44.50;32.30;;;;;;10101288;28;20025;-60
2022/06/18 15:03:45;;;;;;;3.15;2.60;;;44.30;32.80;;;;;;10095770;28;20067;-60
2022/06/18 15:08:57;;;;;;;4.65;2.78;;;44.80;32.30;;;;;;10104343;28;20485;-60
2022/06/18 15:13:48;;;;;;;6.07;3.83;;;45.00;32.40;;;;;;10094895;28;20024;-59
2022/06/18 15:19:31;;;;;;;5.82;2.60;;;45.10;32.50;;;;;;10095407;28;20031;-60
2022/06/18 15:29:27;;;;;;;4.28;3.05;;;45.10;32.50;;;;;;9994918;28;20041;-59
2022/06/18 15:34:28;;;;;;;6.03;2.47;;;45.10;32.70;;;;;;10091089;28;20035;-58
2022/06/18 15:39:20;;;;;;;4.10;2.22;;;45.00;32.70;;;;;;10095127;28;20055;-60
2022/06/18 15:44:18;;;;;;;5.32;2.60;;;44.80;32.90;;;;;;10076838;28;20102;-59
2022/06/18 15:49:28;;;;;;;4.60;2.47;;;45.10;32.70;;;;;;10094620;28;20024;-59
2022/06/18 15:54:35;;;;;;;5.43;2.40;;;44.60;32.70;;;;;;10094341;28;20043;-60
2022/06/18 15:59:27;;;;;;;3.33;2.35;;;44.50;32.70;;;;;;10093384;28;20445;-58
2022/06/18 16:04:18;;;;;;;4.25;2.50;;;43.90;33.20;;;;;;10094073;28;20494;-59
2022/06/18 16:09:17;;;;;;;3.58;2.70;;;44.50;33.00;;;;;;10095831;28;20017;-59
2022/06/18 16:14:13;;;;;;;3.17;2.88;;;45.00;32.80;;;;;;10094077;28;20112;-59
2022/06/18 16:19:04;;;;;;;4.32;3.03;;;45.20;32.60;;;;;;10098617;28;20024;-58
2022/06/18 16:23:56;;;;;;;3.88;3.30;;;45.20;32.50;;;;;;10092771;28;20059;-58
2022/06/18 16:28:49;;;;;;;3.25;2.47;;;45.30;32.60;;;;;;10092892;28;20269;-59
2022/06/18 16:33:47;;;;;;;5.28;2.58;;;45.70;32.00;;;;;;10098390;28;20441;-59
2022/06/18 16:38:56;;;;;;;8.63;2.75;;;45.00;32.30;;;;;;10091594;28;20036;-59
2022/06/18 16:43:49;;;;;;;7.30;2.90;;;45.30;32.20;;;;;;10092053;28;20425;-59
2022/06/18 16:48:40;;;;;;;6.13;3.40;;;45.60;31.90;;;;;;10092233;28;20279;-59
2022/06/18 16:53:47;;;;;;;4.18;2.67;;;44.70;32.10;;;;;;10092020;28;20040;-59
2022/06/18 16:58:39;;;;;;;4.70;2.78;;;44.70;31.80;;;;;;10091093;28;20033;-59
2022/06/18 17:03:30;;;;;;;4.68;2.53;;;44.70;32.10;;;;;;10090545;28;20056;-59
2022/06/18 17:08:23;;;;;;;3.67;3.13;;;44.60;31.90;;;;;;10093470;28;20017;-58
2022/06/18 17:13:16;;;;;;;5.50;3.50;;;44.50;32.00;;;;;;10090612;28;20045;-61
2022/06/18 17:18:07;;;;;;;5.22;3.50;;;44.80;31.90;;;;;;10091477;28;20025;-60
2022/06/18 17:22:58;;;;;;;6.43;2.92;;;44.80;31.70;;;;;;10091772;28;20045;-60
2022/06/18 17:32:58;;;;;;;3.78;2.70;;;43.80;32.30;;;;;;10091435;28;20075;-59
2022/06/18 17:37:48;;;;;;;7.68;3.08;;;43.40;32.60;;;;;;10091205;28;20028;-58
2022/06/18 17:42:39;;;;;;;8.70;3.67;;;43.00;32.80;;;;;;10090826;28;20040;-59
2022/06/18 17:47:30;;;;;;;5.97;2.38;;;42.30;33.10;;;;;;10090156;28;20029;-58
2022/06/18 17:52:21;;;;;;;6.07;2.83;;;41.90;33.30;;;;;;10090572;28;20033;-58
2022/06/18 17:57:12;;;;;;;6.20;2.70;;;41.70;33.40;;;;;;10090494;28;20062;-59
2022/06/18 18:02:18;;;;;;;7.00;3.33;;;41.20;33.60;;;;;;10095248;28;20271;-59
2022/06/18 18:07:11;;;;;;;6.57;3.08;;;40.50;34.00;;;;;;10097269;28;20465;-58
2022/06/18 18:12:03;;;;;;;6.43;3.00;;;39.80;34.40;;;;;;10101006;28;20380;-58
2022/06/18 18:16:55;;;;;;;;;;;39.00;35.00;;;;;;10098565;28;20513;-58
2022/06/18 18:21:46;;;;;;;5.53;3.97;;;38.70;35.20;;;;;;10079966;28;19955;-57
2022/06/18 18:26:37;;;;;;;6.95;4.70;;;38.30;35.20;;;;;;10098121;28;20021;-59
2022/06/18 18:31:28;;;;;;;9.52;4.30;;;37.90;35.60;;;;;;10097677;28;20039;-58
2022/06/18 18:36:19;;;;;;;6.15;3.72;;;37.70;36.10;;;;;;10086289;28;20044;-62
2022/06/18 18:41:10;;;;;;;10.52;6.93;;;37.50;36.40;;;;;;10098074;28;20063;-59
2022/06/18 18:46:01;;;;;;;10.32;4.25;;;37.30;36.80;;;;;;10096845;28;20032;-58
2022/06/18 18:50:52;;;;;;;7.22;3.70;;;37.00;37.20;;;;;;10095599;28;20205;-60
2022/06/18 18:55:43;;;;;;;9.70;4.13;;;36.70;37.50;;;;;;10091519;28;20252;-59
2022/06/18 19:00:35;;;;;;;6.47;4.38;;;36.50;37.80;;;;;;10096584;28;20499;-58
2022/06/18 19:05:26;;;;;;;10.40;5.47;;;36.30;38.20;;;;;;10096825;28;20112;-58
2022/06/18 19:10:16;;;;;;;11.00;5.57;;;36.10;38.40;;;;;;10095707;28;20055;-60
2022/06/18 19:15:07;;;;;;;11.90;7.25;;;35.90;38.80;;;;;;10095274;28;20067;-58
2022/06/18 19:19:58;;;;;;;15.85;8.32;;;35.70;39.00;;;;;;10095556;28;20029;-59
2022/06/18 19:24:49;;;;;;;11.65;7.38;;;35.50;39.40;;;;;;10095231;28;20092;-60
2022/06/18 19:29:40;;;;;;;10.13;6.63;;;35.30;39.80;;;;;;10095358;28;20067;-57
2022/06/18 19:34:31;;;;;;;15.68;6.40;;;35.20;40.00;;;;;;10076959;28;20079;-58
2022/06/18 19:39:26;;;;;;;11.25;6.65;;;35.00;40.40;;;;;;10076403;28;20061;-58
2022/06/18 19:44:16;;;;;;;17.23;9.57;;;34.90;40.90;;;;;;10076419;28;20044;-57
2022/06/18 19:49:07;;;;;;;14.48;6.13;;;34.70;41.10;;;;;;10094643;28;20459;-58
2022/06/18 19:53:58;;;;;;;15.38;5.55;;;34.60;41.30;;;;;;10094187;28;20415;-57
2022/06/18 19:58:49;;;;;;;12.75;4.88;;;34.40;41.60;;;;;;10093463;28;20074;-57
2022/06/18 20:03:40;;;;;;;17.05;8.43;;;34.30;41.70;;;;;;10094678;28;20029;-58
2022/06/18 20:08:31;;;;;;;13.73;5.90;;;34.10;42.00;;;;;;10077239;28;20032;-59
2022/06/18 20:13:22;;;;;;;8.95;4.95;;;34.00;42.20;;;;;;10092670;28;20089;-57
2022/06/18 20:18:14;;;;;;;10.30;4.10;;;33.80;42.50;;;;;;10088744;28;20139;-58
2022/06/18 20:23:06;;;;;;;12.13;5.72;;;33.80;42.60;;;;;;10091905;28;20313;-57
2022/06/18 20:27:57;;;;;;;8.00;4.93;;;33.60;42.70;;;;;;10093075;28;20525;-60
2022/06/18 20:32:49;;;;;;;6.88;4.35;;;33.70;42.90;;;;;;10096601;28;20445;-56
2022/06/18 20:37:40;;;;;;;11.05;6.00;;;33.60;43.10;;;;;;10092258;28;20494;-60
2022/06/18 20:42:30;;;;;;;8.95;4.43;;;33.50;43.40;;;;;;10094426;28;20028;-59
2022/06/18 20:47:21;;;;;;;6.35;4.13;;;33.30;44.00;;;;;;10092752;28;20025;-58
2022/06/18 20:52:14;;;;;;;6.57;4.82;;;33.30;44.00;;;;;;10092098;28;20033;-60
2022/06/18 20:57:08;;;;;;;7.20;5.10;;;33.30;44.20;;;;;;10092544;28;20021;-59
2022/06/18 21:01:59;;;;;;;10.27;5.47;;;33.30;44.40;;;;;;10095774;28;20052;-58
2022/06/18 21:06:50;;;;;;;11.52;5.50;;;33.10;44.50;;;;;;10073803;28;20047;-58
2022/06/18 21:11:41;;;;;;;11.20;5.85;;;33.00;44.70;;;;;;10100951;28;20036;-59
2022/06/18 21:16:32;;;;;;;8.98;6.20;;;32.90;44.90;;;;;;10092377;28;20025;-58
2022/06/18 21:21:22;;;;;;;9.90;4.93;;;32.80;45.20;;;;;;10091152;28;20032;-58
2022/06/18 21:26:13;;;;;;;8.07;4.80;;;32.70;45.50;;;;;;10091185;28;20033;-58
2022/06/18 21:36:59;;;;;;;9.68;5.32;;;32.50;45.60;;;;;;10090916;28;20032;-59
2022/06/18 21:41:25;;;;;;;10.93;6.72;;;32.40;46.00;;;;;;10102899;28;20048;-58
2022/06/18 21:46:15;;;;;;;12.75;6.97;;;32.30;46.20;;;;;;10098692;28;20032;-57
2022/06/18 21:51:06;;;;;;;13.82;7.22;;;32.40;46.30;;;;;;10098367;28;20033;-57
2022/06/18 21:56:02;;;;;;;10.15;6.15;;;32.30;46.50;;;;;;10106155;28;20128;-58
2022/06/18 22:00:53;;;;;;;10.75;6.45;;;32.10;46.90;;;;;;10098914;28;20024;-59
2022/06/18 22:05:45;;;;;;;10.82;5.63;;;32.10;47.10;;;;;;10097582;28;20414;-59
2022/06/18 22:10:36;;;;;;;11.77;6.30;;;32.00;47.10;;;;;;10101978;28;20063;-58
2022/06/18 22:20:39;;;;;;;11.45;4.55;;;31.90;46.90;;;;;;10099380;28;20399;-58
2022/06/18 22:25:32;;;;;;;9.23;4.82;;;31.80;46.70;;;;;;10102103;28;20047;-58
2022/06/18 22:30:23;;;;;;;6.30;4.00;;;31.60;46.70;;;;;;10098516;28;20437;-58
2022/06/18 22:35:14;;;;;;;15.73;5.18;;;31.50;46.70;;;;;;10097519;28;20120;-58
2022/06/18 22:40:07;;;;;;;17.27;4.38;;;31.50;46.60;;;;;;10102447;28;20394;-58
2022/06/18 22:44:58;;;;;;;7.88;3.38;;;31.40;46.50;;;;;;10097653;28;20406;-60
2022/06/18 22:49:50;;;;;;;9.00;4.78;;;31.20;46.80;;;;;;10096956;28;20108;-58
2022/06/18 22:54:48;;;;;;;11.55;4.28;;;31.10;46.90;;;;;;10096218;28;20460;-59
2022/06/18 22:59:39;;;;;;;10.93;3.80;;;31.10;46.90;;;;;;10095906;28;20035;-59
2022/06/18 23:04:30;;;;;;;13.95;3.80;;;30.90;46.90;;;;;;10099508;28;20021;-60
2022/06/18 23:09:26;;;;;;;12.15;4.00;;;30.90;46.90;;;;;;10101257;28;20041;-60
2022/06/18 23:14:21;;;;;;;11.40;4.28;;;30.80;46.70;;;;;;10095252;28;20527;-58
2022/06/18 23:19:14;;;;;;;14.07;4.72;;;30.90;46.60;;;;;;10103413;28;20483;-58
2022/06/18 23:24:05;;;;;;;9.70;4.30;;;30.90;46.40;;;;;;10095788;28;20511;-59
2022/06/18 23:28:56;;;;;;;7.85;3.70;;;30.70;46.30;;;;;;10095832;28;20108;-58
2022/06/18 23:33:47;;;;;;;12.13;4.07;;;30.70;46.20;;;;;;10100903;28;20029;-58
2022/06/18 23:38:37;;;;;;;13.15;4.00;;;30.70;46.10;;;;;;10095299;28;20511;-57
2022/06/18 23:43:31;;;;;;;10.07;4.20;;;30.70;45.90;;;;;;10092519;28;20488;-58
2022/06/18 23:48:21;;;;;;;10.70;3.50;;;30.70;45.70;;;;;;10098023;28;20063;-59
2022/06/18 23:53:12;;;;;;;12.73;3.45;;;30.70;45.50;;;;;;10093588;28;20149;-58
2022/06/18 23:58:09;;;;;;;17.48;5.32;;;30.60;45.50;;;;;;10094366;28;20356;-58
